sensor_id;sensor_type;location;lat;lon;timestamp;P1;durP1;ratioP1;P2;durP2;ratioP2
8652;SDS011;4364;52.426;9.424;2023-07-29T00:00:09;8.43;;;4.70;;
8652;SDS011;4364;52.426;9.424;2023-07-29T00:02:39;5.90;;;4.60;;
8652;SDS011;4364;52.426;9.424;2023-07-29T00:05:06;5.07;;;4.57;;
8652;SDS011;4364;52.426;9.424;2023-07-29T00:07:33;4.70;;;4.17;;
8652;SDS011;4364;52.426;9.424;2023-07-29T00:10:00;4.40;;;4.00;;
8652;SDS011;4364;52.426;9.424;2023-07-29T00:12:26;4.73;;;4.30;;
8652;SDS011;4364;52.426;9.424;2023-07-29T00:14:53;4.00;;;3.60;;
8652;SDS011;4364;52.426;9.424;2023-07-29T00:17:19;3.80;;;3.37;;
8652;SDS011;4364;52.426;9.424;2023-07-29T00:19:46;5.03;;;3.50;;
8652;SDS011;4364;52.426;9.424;2023-07-29T00:22:13;3.33;;;3.03;;
8652;SDS011;4364;52.426;9.424;2023-07-29T00:24:40;3.73;;;3.13;;
8652;SDS011;4364;52.426;9.424;2023-07-29T00:27:07;5.90;;;3.20;;
8652;SDS011;4364;52.426;9.424;2023-07-29T00:29:34;3.23;;;2.80;;
8652;SDS011;4364;52.426;9.424;2023-07-29T00:32:01;4.37;;;2.93;;
8652;SDS011;4364;52.426;9.424;2023-07-29T00:34:28;3.33;;;3.03;;
8652;SDS011;4364;52.426;9.424;2023-07-29T00:36:54;3.50;;;3.00;;
8652;SDS011;4364;52.426;9.424;2023-07-29T00:39:21;3.90;;;2.93;;
8652;SDS011;4364;52.426;9.424;2023-07-29T00:41:49;3.73;;;2.67;;
8652;SDS011;4364;52.426;9.424;2023-07-29T00:44:16;3.87;;;3.10;;
8652;SDS011;4364;52.426;9.424;2023-07-29T00:46:42;3.70;;;2.93;;
8652;SDS011;4364;52.426;9.424;2023-07-29T00:49:12;3.30;;;3.00;;
8652;SDS011;4364;52.426;9.424;2023-07-29T00:51:40;4.77;;;2.97;;
8652;SDS011;4364;52.426;9.424;2023-07-29T00:54:07;3.63;;;2.77;;
8652;SDS011;4364;52.426;9.424;2023-07-29T00:56:33;3.03;;;2.70;;
8652;SDS011;4364;52.426;9.424;2023-07-29T00:59:01;3.80;;;3.00;;
8652;SDS011;4364;52.426;9.424;2023-07-29T01:01:28;3.20;;;2.80;;
8652;SDS011;4364;52.426;9.424;2023-07-29T01:03:55;2.70;;;2.50;;
8652;SDS011;4364;52.426;9.424;2023-07-29T01:09:41;3.17;;;2.77;;
8652;SDS011;4364;52.426;9.424;2023-07-29T01:12:20;3.03;;;2.53;;
8652;SDS011;4364;52.426;9.424;2023-07-29T01:14:59;2.83;;;2.60;;
8652;SDS011;4364;52.426;9.424;2023-07-29T01:17:37;4.40;;;3.00;;
8652;SDS011;4364;52.426;9.424;2023-07-29T01:20:15;3.20;;;2.70;;
8652;SDS011;4364;52.426;9.424;2023-07-29T01:22:43;3.10;;;2.80;;
8652;SDS011;4364;52.426;9.424;2023-07-29T01:25:10;2.47;;;2.27;;
8652;SDS011;4364;52.426;9.424;2023-07-29T01:27:37;3.27;;;2.87;;
8652;SDS011;4364;52.426;9.424;2023-07-29T01:30:04;2.90;;;2.70;;
8652;SDS011;4364;52.426;9.424;2023-07-29T01:32:35;2.73;;;2.47;;
8652;SDS011;4364;52.426;9.424;2023-07-29T01:37:41;4.10;;;3.00;;
8652;SDS011;4364;52.426;9.424;2023-07-29T01:40:08;3.53;;;3.20;;
8652;SDS011;4364;52.426;9.424;2023-07-29T01:42:36;3.07;;;2.60;;
8652;SDS011;4364;52.426;9.424;2023-07-29T01:45:04;2.87;;;2.67;;
8652;SDS011;4364;52.426;9.424;2023-07-29T01:47:31;3.00;;;2.70;;
8652;SDS011;4364;52.426;9.424;2023-07-29T01:49:58;2.97;;;2.77;;
8652;SDS011;4364;52.426;9.424;2023-07-29T01:52:25;3.20;;;2.73;;
8652;SDS011;4364;52.426;9.424;2023-07-29T01:54:51;3.43;;;3.07;;
8652;SDS011;4364;52.426;9.424;2023-07-29T01:57:17;3.80;;;3.50;;
8652;SDS011;4364;52.426;9.424;2023-07-29T01:59:44;3.37;;;3.03;;
8652;SDS011;4364;52.426;9.424;2023-07-29T02:02:10;3.33;;;3.00;;
8652;SDS011;4364;52.426;9.424;2023-07-29T02:04:37;2.97;;;2.77;;
8652;SDS011;4364;52.426;9.424;2023-07-29T02:07:04;3.73;;;3.10;;
8652;SDS011;4364;52.426;9.424;2023-07-29T02:09:30;5.60;;;3.27;;
8652;SDS011;4364;52.426;9.424;2023-07-29T02:11:58;4.30;;;2.60;;
8652;SDS011;4364;52.426;9.424;2023-07-29T02:14:24;2.87;;;2.63;;
8652;SDS011;4364;52.426;9.424;2023-07-29T02:16:51;3.47;;;2.90;;
8652;SDS011;4364;52.426;9.424;2023-07-29T02:19:17;5.23;;;2.80;;
8652;SDS011;4364;52.426;9.424;2023-07-29T02:21:44;3.03;;;2.73;;
8652;SDS011;4364;52.426;9.424;2023-07-29T02:24:10;2.90;;;2.70;;
8652;SDS011;4364;52.426;9.424;2023-07-29T02:26:38;3.20;;;2.90;;
8652;SDS011;4364;52.426;9.424;2023-07-29T02:29:04;5.47;;;3.10;;
8652;SDS011;4364;52.426;9.424;2023-07-29T02:31:31;3.33;;;3.03;;
8652;SDS011;4364;52.426;9.424;2023-07-29T02:33:58;4.50;;;3.00;;
8652;SDS011;4364;52.426;9.424;2023-07-29T02:36:24;3.43;;;3.10;;
8652;SDS011;4364;52.426;9.424;2023-07-29T02:38:52;3.90;;;3.00;;
8652;SDS011;4364;52.426;9.424;2023-07-29T02:41:19;3.33;;;3.00;;
8652;SDS011;4364;52.426;9.424;2023-07-29T02:43:49;3.03;;;2.80;;
8652;SDS011;4364;52.426;9.424;2023-07-29T02:46:16;2.87;;;2.60;;
8652;SDS011;4364;52.426;9.424;2023-07-29T02:48:44;3.80;;;3.03;;
8652;SDS011;4364;52.426;9.424;2023-07-29T02:51:11;3.37;;;3.07;;
8652;SDS011;4364;52.426;9.424;2023-07-29T02:53:37;5.13;;;3.30;;
8652;SDS011;4364;52.426;9.424;2023-07-29T02:56:04;4.63;;;3.47;;
8652;SDS011;4364;52.426;9.424;2023-07-29T02:58:32;3.40;;;3.10;;
8652;SDS011;4364;52.426;9.424;2023-07-29T03:01:03;3.30;;;2.93;;
8652;SDS011;4364;52.426;9.424;2023-07-29T03:03:31;3.37;;;3.03;;
8652;SDS011;4364;52.426;9.424;2023-07-29T03:06:06;3.70;;;3.00;;
8652;SDS011;4364;52.426;9.424;2023-07-29T03:08:34;3.30;;;2.77;;
8652;SDS011;4364;52.426;9.424;2023-07-29T03:11:12;3.20;;;2.90;;
8652;SDS011;4364;52.426;9.424;2023-07-29T03:13:39;3.17;;;2.80;;
8652;SDS011;4364;52.426;9.424;2023-07-29T03:16:07;3.60;;;3.10;;
8652;SDS011;4364;52.426;9.424;2023-07-29T03:18:38;3.10;;;2.80;;
8652;SDS011;4364;52.426;9.424;2023-07-29T03:21:05;3.07;;;2.77;;
8652;SDS011;4364;52.426;9.424;2023-07-29T03:23:32;3.40;;;3.10;;
8652;SDS011;4364;52.426;9.424;2023-07-29T03:26:00;3.43;;;2.50;;
8652;SDS011;4364;52.426;9.424;2023-07-29T03:28:32;2.77;;;2.57;;
8652;SDS011;4364;52.426;9.424;2023-07-29T03:30:59;3.20;;;2.73;;
8652;SDS011;4364;52.426;9.424;2023-07-29T03:33:26;5.43;;;2.90;;
8652;SDS011;4364;52.426;9.424;2023-07-29T03:35:53;2.80;;;2.50;;
8652;SDS011;4364;52.426;9.424;2023-07-29T03:38:19;2.70;;;2.50;;
8652;SDS011;4364;52.426;9.424;2023-07-29T03:40:46;3.20;;;2.87;;
8652;SDS011;4364;52.426;9.424;2023-07-29T03:43:13;3.00;;;2.70;;
8652;SDS011;4364;52.426;9.424;2023-07-29T03:45:40;2.83;;;2.60;;
8652;SDS011;4364;52.426;9.424;2023-07-29T03:48:07;2.40;;;2.20;;
8652;SDS011;4364;52.426;9.424;2023-07-29T03:50:34;2.70;;;2.50;;
8652;SDS011;4364;52.426;9.424;2023-07-29T03:53:02;2.60;;;2.40;;
8652;SDS011;4364;52.426;9.424;2023-07-29T03:55:30;2.57;;;2.33;;
8652;SDS011;4364;52.426;9.424;2023-07-29T03:57:58;2.80;;;2.50;;
8652;SDS011;4364;52.426;9.424;2023-07-29T04:00:26;3.07;;;2.70;;
8652;SDS011;4364;52.426;9.424;2023-07-29T04:02:53;3.57;;;2.60;;
8652;SDS011;4364;52.426;9.424;2023-07-29T04:05:20;3.33;;;2.90;;
8652;SDS011;4364;52.426;9.424;2023-07-29T04:07:47;2.67;;;2.43;;
8652;SDS011;4364;52.426;9.424;2023-07-29T04:10:14;2.60;;;2.40;;
8652;SDS011;4364;52.426;9.424;2023-07-29T04:12:40;2.80;;;2.50;;
8652;SDS011;4364;52.426;9.424;2023-07-29T04:15:07;2.80;;;2.60;;
8652;SDS011;4364;52.426;9.424;2023-07-29T04:17:34;3.33;;;2.57;;
8652;SDS011;4364;52.426;9.424;2023-07-29T04:20:02;2.93;;;2.73;;
8652;SDS011;4364;52.426;9.424;2023-07-29T04:22:33;3.30;;;2.67;;
8652;SDS011;4364;52.426;9.424;2023-07-29T04:25:00;2.60;;;2.40;;
8652;SDS011;4364;52.426;9.424;2023-07-29T04:27:26;2.90;;;2.47;;
8652;SDS011;4364;52.426;9.424;2023-07-29T04:29:53;3.90;;;2.50;;
8652;SDS011;4364;52.426;9.424;2023-07-29T04:32:19;3.00;;;2.60;;
8652;SDS011;4364;52.426;9.424;2023-07-29T04:34:46;2.63;;;2.43;;
8652;SDS011;4364;52.426;9.424;2023-07-29T04:37:12;2.27;;;2.07;;
8652;SDS011;4364;52.426;9.424;2023-07-29T04:39:39;3.20;;;2.90;;
8652;SDS011;4364;52.426;9.424;2023-07-29T04:42:06;3.40;;;2.47;;
8652;SDS011;4364;52.426;9.424;2023-07-29T04:44:34;3.00;;;2.70;;
8652;SDS011;4364;52.426;9.424;2023-07-29T04:47:01;3.70;;;3.00;;
8652;SDS011;4364;52.426;9.424;2023-07-29T04:49:28;2.70;;;2.50;;
8652;SDS011;4364;52.426;9.424;2023-07-29T04:51:55;3.83;;;2.60;;
8652;SDS011;4364;52.426;9.424;2023-07-29T04:54:21;2.83;;;2.63;;
8652;SDS011;4364;52.426;9.424;2023-07-29T04:56:48;2.97;;;2.67;;
8652;SDS011;4364;52.426;9.424;2023-07-29T04:59:16;4.27;;;2.73;;
8652;SDS011;4364;52.426;9.424;2023-07-29T05:01:43;2.90;;;2.60;;
8652;SDS011;4364;52.426;9.424;2023-07-29T05:04:10;2.70;;;2.10;;
8652;SDS011;4364;52.426;9.424;2023-07-29T05:06:36;3.67;;;2.27;;
8652;SDS011;4364;52.426;9.424;2023-07-29T05:09:13;2.60;;;2.40;;
8652;SDS011;4364;52.426;9.424;2023-07-29T05:11:42;2.60;;;2.40;;
8652;SDS011;4364;52.426;9.424;2023-07-29T05:14:11;2.70;;;2.30;;
8652;SDS011;4364;52.426;9.424;2023-07-29T05:16:41;2.40;;;2.20;;
8652;SDS011;4364;52.426;9.424;2023-07-29T05:19:07;2.53;;;2.33;;
8652;SDS011;4364;52.426;9.424;2023-07-29T05:21:34;3.23;;;2.20;;
8652;SDS011;4364;52.426;9.424;2023-07-29T05:24:01;2.37;;;2.17;;
8652;SDS011;4364;52.426;9.424;2023-07-29T05:26:27;2.60;;;2.40;;
8652;SDS011;4364;52.426;9.424;2023-07-29T05:28:54;2.40;;;2.20;;
8652;SDS011;4364;52.426;9.424;2023-07-29T05:31:21;3.30;;;2.33;;
8652;SDS011;4364;52.426;9.424;2023-07-29T05:33:48;4.70;;;2.80;;
8652;SDS011;4364;52.426;9.424;2023-07-29T05:36:15;3.20;;;2.63;;
8652;SDS011;4364;52.426;9.424;2023-07-29T05:38:41;2.50;;;2.30;;
8652;SDS011;4364;52.426;9.424;2023-07-29T05:41:08;3.53;;;2.33;;
8652;SDS011;4364;52.426;9.424;2023-07-29T05:43:34;4.10;;;2.57;;
8652;SDS011;4364;52.426;9.424;2023-07-29T05:46:01;2.50;;;2.30;;
8652;SDS011;4364;52.426;9.424;2023-07-29T05:48:28;2.87;;;2.43;;
8652;SDS011;4364;52.426;9.424;2023-07-29T05:50:55;2.73;;;2.37;;
8652;SDS011;4364;52.426;9.424;2023-07-29T05:53:22;3.40;;;2.37;;
8652;SDS011;4364;52.426;9.424;2023-07-29T05:55:48;2.97;;;2.67;;
8652;SDS011;4364;52.426;9.424;2023-07-29T05:58:16;2.50;;;2.30;;
8652;SDS011;4364;52.426;9.424;2023-07-29T06:00:42;3.17;;;2.83;;
8652;SDS011;4364;52.426;9.424;2023-07-29T06:03:09;3.63;;;2.60;;
8652;SDS011;4364;52.426;9.424;2023-07-29T06:05:36;3.40;;;2.50;;
8652;SDS011;4364;52.426;9.424;2023-07-29T06:08:02;2.83;;;2.50;;
8652;SDS011;4364;52.426;9.424;2023-07-29T06:10:30;2.50;;;2.30;;
8652;SDS011;4364;52.426;9.424;2023-07-29T06:12:57;3.37;;;2.67;;
8652;SDS011;4364;52.426;9.424;2023-07-29T06:15:23;2.60;;;2.20;;
8652;SDS011;4364;52.426;9.424;2023-07-29T06:17:50;2.77;;;2.43;;
8652;SDS011;4364;52.426;9.424;2023-07-29T06:20:19;2.50;;;2.30;;
8652;SDS011;4364;52.426;9.424;2023-07-29T06:22:45;3.43;;;2.37;;
8652;SDS011;4364;52.426;9.424;2023-07-29T06:25:13;2.70;;;2.40;;
8652;SDS011;4364;52.426;9.424;2023-07-29T06:27:39;2.63;;;2.43;;
8652;SDS011;4364;52.426;9.424;2023-07-29T06:30:06;3.27;;;2.47;;
8652;SDS011;4364;52.426;9.424;2023-07-29T06:32:33;2.80;;;2.37;;
8652;SDS011;4364;52.426;9.424;2023-07-29T06:35:00;3.23;;;2.40;;
8652;SDS011;4364;52.426;9.424;2023-07-29T06:37:27;2.70;;;2.50;;
8652;SDS011;4364;52.426;9.424;2023-07-29T06:39:53;2.63;;;2.40;;
8652;SDS011;4364;52.426;9.424;2023-07-29T06:42:20;2.30;;;2.10;;
8652;SDS011;4364;52.426;9.424;2023-07-29T06:44:46;2.90;;;2.70;;
8652;SDS011;4364;52.426;9.424;2023-07-29T06:47:13;3.00;;;2.70;;
8652;SDS011;4364;52.426;9.424;2023-07-29T06:49:39;3.37;;;2.50;;
8652;SDS011;4364;52.426;9.424;2023-07-29T06:52:06;2.80;;;2.60;;
8652;SDS011;4364;52.426;9.424;2023-07-29T06:54:33;3.03;;;2.70;;
8652;SDS011;4364;52.426;9.424;2023-07-29T06:57:00;4.10;;;2.67;;
8652;SDS011;4364;52.426;9.424;2023-07-29T06:59:27;3.40;;;2.63;;
8652;SDS011;4364;52.426;9.424;2023-07-29T07:01:53;4.60;;;3.00;;
8652;SDS011;4364;52.426;9.424;2023-07-29T07:04:19;3.40;;;2.47;;
8652;SDS011;4364;52.426;9.424;2023-07-29T07:06:46;2.53;;;2.33;;
8652;SDS011;4364;52.426;9.424;2023-07-29T07:09:13;2.93;;;2.63;;
8652;SDS011;4364;52.426;9.424;2023-07-29T07:11:39;3.30;;;3.00;;
8652;SDS011;4364;52.426;9.424;2023-07-29T07:14:06;3.63;;;2.80;;
8652;SDS011;4364;52.426;9.424;2023-07-29T07:16:33;4.23;;;2.40;;
8652;SDS011;4364;52.426;9.424;2023-07-29T07:19:02;3.40;;;2.90;;
8652;SDS011;4364;52.426;9.424;2023-07-29T07:21:29;3.17;;;2.80;;
8652;SDS011;4364;52.426;9.424;2023-07-29T07:23:56;5.97;;;3.07;;
8652;SDS011;4364;52.426;9.424;2023-07-29T07:26:22;4.97;;;2.60;;
8652;SDS011;4364;52.426;9.424;2023-07-29T07:28:49;3.37;;;2.93;;
8652;SDS011;4364;52.426;9.424;2023-07-29T07:31:15;2.90;;;2.70;;
8652;SDS011;4364;52.426;9.424;2023-07-29T07:33:45;3.10;;;2.90;;
8652;SDS011;4364;52.426;9.424;2023-07-29T07:36:12;3.37;;;2.90;;
8652;SDS011;4364;52.426;9.424;2023-07-29T07:38:39;3.67;;;2.63;;
8652;SDS011;4364;52.426;9.424;2023-07-29T07:41:05;3.07;;;2.73;;
8652;SDS011;4364;52.426;9.424;2023-07-29T07:43:32;4.13;;;2.90;;
8652;SDS011;4364;52.426;9.424;2023-07-29T07:46:00;3.90;;;3.10;;
8652;SDS011;4364;52.426;9.424;2023-07-29T07:48:27;5.13;;;3.40;;
8652;SDS011;4364;52.426;9.424;2023-07-29T07:50:54;3.33;;;2.97;;
8652;SDS011;4364;52.426;9.424;2023-07-29T07:53:21;4.13;;;3.10;;
8652;SDS011;4364;52.426;9.424;2023-07-29T07:55:48;3.20;;;2.77;;
8652;SDS011;4364;52.426;9.424;2023-07-29T07:58:14;3.83;;;3.10;;
8652;SDS011;4364;52.426;9.424;2023-07-29T08:00:41;3.37;;;3.07;;
8652;SDS011;4364;52.426;9.424;2023-07-29T08:03:07;3.70;;;2.90;;
8652;SDS011;4364;52.426;9.424;2023-07-29T08:05:34;4.43;;;3.60;;
8652;SDS011;4364;52.426;9.424;2023-07-29T08:08:01;3.43;;;3.13;;
8652;SDS011;4364;52.426;9.424;2023-07-29T08:10:27;3.40;;;3.10;;
8652;SDS011;4364;52.426;9.424;2023-07-29T08:12:53;3.73;;;3.43;;
8652;SDS011;4364;52.426;9.424;2023-07-29T08:15:20;4.20;;;3.77;;
8652;SDS011;4364;52.426;9.424;2023-07-29T08:17:46;3.90;;;3.53;;
8652;SDS011;4364;52.426;9.424;2023-07-29T08:20:13;3.80;;;3.40;;
8652;SDS011;4364;52.426;9.424;2023-07-29T08:22:39;4.67;;;3.60;;
8652;SDS011;4364;52.426;9.424;2023-07-29T08:25:06;4.50;;;3.50;;
8652;SDS011;4364;52.426;9.424;2023-07-29T08:27:33;5.33;;;4.13;;
8652;SDS011;4364;52.426;9.424;2023-07-29T08:30:01;4.10;;;3.70;;
8652;SDS011;4364;52.426;9.424;2023-07-29T08:32:27;3.93;;;3.60;;
8652;SDS011;4364;52.426;9.424;2023-07-29T08:34:54;6.00;;;3.80;;
8652;SDS011;4364;52.426;9.424;2023-07-29T08:37:20;3.97;;;3.63;;
8652;SDS011;4364;52.426;9.424;2023-07-29T08:39:47;4.13;;;3.77;;
8652;SDS011;4364;52.426;9.424;2023-07-29T08:42:14;4.30;;;3.83;;
8652;SDS011;4364;52.426;9.424;2023-07-29T08:44:45;4.90;;;4.00;;
8652;SDS011;4364;52.426;9.424;2023-07-29T08:47:15;4.53;;;4.07;;
8652;SDS011;4364;52.426;9.424;2023-07-29T08:49:42;4.57;;;4.17;;
8652;SDS011;4364;52.426;9.424;2023-07-29T08:52:11;7.23;;;6.07;;
8652;SDS011;4364;52.426;9.424;2023-07-29T08:54:38;7.93;;;6.87;;
8652;SDS011;4364;52.426;9.424;2023-07-29T08:57:06;8.37;;;7.57;;
8652;SDS011;4364;52.426;9.424;2023-07-29T08:59:33;9.40;;;8.50;;
8652;SDS011;4364;52.426;9.424;2023-07-29T09:02:00;9.20;;;8.33;;
8652;SDS011;4364;52.426;9.424;2023-07-29T09:04:26;8.53;;;7.70;;
8652;SDS011;4364;52.426;9.424;2023-07-29T09:06:55;8.07;;;7.33;;
8652;SDS011;4364;52.426;9.424;2023-07-29T09:09:22;9.10;;;8.13;;
8652;SDS011;4364;52.426;9.424;2023-07-29T09:11:48;9.00;;;8.10;;
8652;SDS011;4364;52.426;9.424;2023-07-29T09:14:15;10.37;;;8.13;;
8652;SDS011;4364;52.426;9.424;2023-07-29T09:16:42;9.67;;;8.70;;
8652;SDS011;4364;52.426;9.424;2023-07-29T09:19:09;12.90;;;10.30;;
8652;SDS011;4364;52.426;9.424;2023-07-29T09:21:38;12.83;;;11.00;;
8652;SDS011;4364;52.426;9.424;2023-07-29T09:24:06;12.87;;;11.57;;
8652;SDS011;4364;52.426;9.424;2023-07-29T09:26:34;12.43;;;11.23;;
8652;SDS011;4364;52.426;9.424;2023-07-29T09:29:02;11.77;;;10.57;;
8652;SDS011;4364;52.426;9.424;2023-07-29T09:31:30;12.70;;;10.97;;
8652;SDS011;4364;52.426;9.424;2023-07-29T09:33:57;11.30;;;9.67;;
8652;SDS011;4364;52.426;9.424;2023-07-29T09:36:25;11.27;;;8.73;;
8652;SDS011;4364;52.426;9.424;2023-07-29T09:38:56;8.90;;;7.73;;
8652;SDS011;4364;52.426;9.424;2023-07-29T09:41:24;9.30;;;8.27;;
8652;SDS011;4364;52.426;9.424;2023-07-29T09:43:58;7.67;;;6.90;;
8652;SDS011;4364;52.426;9.424;2023-07-29T09:46:33;5.63;;;4.83;;
8652;SDS011;4364;52.426;9.424;2023-07-29T09:49:03;5.67;;;4.80;;
8652;SDS011;4364;52.426;9.424;2023-07-29T09:51:33;4.87;;;4.30;;
8652;SDS011;4364;52.426;9.424;2023-07-29T09:54:04;4.60;;;4.10;;
8652;SDS011;4364;52.426;9.424;2023-07-29T09:56:31;5.60;;;4.47;;
8652;SDS011;4364;52.426;9.424;2023-07-29T09:58:57;4.40;;;4.00;;
8652;SDS011;4364;52.426;9.424;2023-07-29T10:01:24;5.73;;;4.60;;
8652;SDS011;4364;52.426;9.424;2023-07-29T10:03:51;6.30;;;5.67;;
8652;SDS011;4364;52.426;9.424;2023-07-29T10:06:18;7.27;;;5.40;;
8652;SDS011;4364;52.426;9.424;2023-07-29T10:08:46;7.37;;;4.70;;
8652;SDS011;4364;52.426;9.424;2023-07-29T10:11:16;4.87;;;4.47;;
8652;SDS011;4364;52.426;9.424;2023-07-29T10:13:46;5.20;;;4.13;;
8652;SDS011;4364;52.426;9.424;2023-07-29T10:16:34;4.50;;;4.10;;
8652;SDS011;4364;52.426;9.424;2023-07-29T10:19:03;4.03;;;3.63;;
8652;SDS011;4364;52.426;9.424;2023-07-29T10:21:31;4.00;;;3.60;;
8652;SDS011;4364;52.426;9.424;2023-07-29T10:24:00;3.63;;;3.33;;
8652;SDS011;4364;52.426;9.424;2023-07-29T10:26:29;3.80;;;3.20;;
8652;SDS011;4364;52.426;9.424;2023-07-29T10:28:59;4.40;;;3.60;;
8652;SDS011;4364;52.426;9.424;2023-07-29T10:31:32;3.17;;;2.90;;
8652;SDS011;4364;52.426;9.424;2023-07-29T10:34:00;3.00;;;2.73;;
8652;SDS011;4364;52.426;9.424;2023-07-29T10:36:28;3.80;;;3.50;;
8652;SDS011;4364;52.426;9.424;2023-07-29T10:38:55;3.73;;;2.97;;
8652;SDS011;4364;52.426;9.424;2023-07-29T10:41:22;4.70;;;3.10;;
8652;SDS011;4364;52.426;9.424;2023-07-29T10:43:49;3.37;;;3.00;;
8652;SDS011;4364;52.426;9.424;2023-07-29T10:46:17;3.53;;;3.23;;
8652;SDS011;4364;52.426;9.424;2023-07-29T10:51:30;4.10;;;3.70;;
8652;SDS011;4364;52.426;9.424;2023-07-29T10:54:09;3.70;;;3.37;;
8652;SDS011;4364;52.426;9.424;2023-07-29T10:56:42;3.93;;;3.00;;
8652;SDS011;4364;52.426;9.424;2023-07-29T11:01:56;4.37;;;2.40;;
8652;SDS011;4364;52.426;9.424;2023-07-29T11:04:25;2.60;;;2.37;;
8652;SDS011;4364;52.426;9.424;2023-07-29T11:09:40;3.53;;;1.63;;
8652;SDS011;4364;52.426;9.424;2023-07-29T11:15:15;2.67;;;1.60;;
8652;SDS011;4364;52.426;9.424;2023-07-29T11:17:49;1.70;;;1.60;;
8652;SDS011;4364;52.426;9.424;2023-07-29T11:20:18;1.37;;;1.27;;
8652;SDS011;4364;52.426;9.424;2023-07-29T11:22:46;1.63;;;1.20;;
8652;SDS011;4364;52.426;9.424;2023-07-29T11:25:14;1.47;;;1.10;;
8652;SDS011;4364;52.426;9.424;2023-07-29T11:27:42;1.50;;;1.40;;
8652;SDS011;4364;52.426;9.424;2023-07-29T11:30:09;2.30;;;1.20;;
8652;SDS011;4364;52.426;9.424;2023-07-29T11:32:38;1.20;;;1.10;;
8652;SDS011;4364;52.426;9.424;2023-07-29T11:35:07;1.20;;;1.10;;
8652;SDS011;4364;52.426;9.424;2023-07-29T11:37:39;1.17;;;1.07;;
8652;SDS011;4364;52.426;9.424;2023-07-29T11:40:06;4.27;;;1.20;;
8652;SDS011;4364;52.426;9.424;2023-07-29T11:42:34;1.40;;;1.00;;
8652;SDS011;4364;52.426;9.424;2023-07-29T11:45:02;2.90;;;1.23;;
8652;SDS011;4364;52.426;9.424;2023-07-29T11:47:31;2.13;;;1.23;;
8652;SDS011;4364;52.426;9.424;2023-07-29T11:49:58;1.43;;;1.20;;
8652;SDS011;4364;52.426;9.424;2023-07-29T11:52:27;1.20;;;1.10;;
8652;SDS011;4364;52.426;9.424;2023-07-29T11:54:54;2.40;;;1.00;;
8652;SDS011;4364;52.426;9.424;2023-07-29T11:57:20;1.83;;;1.20;;
8652;SDS011;4364;52.426;9.424;2023-07-29T11:59:47;2.10;;;1.30;;
8652;SDS011;4364;52.426;9.424;2023-07-29T12:02:15;1.53;;;1.30;;
8652;SDS011;4364;52.426;9.424;2023-07-29T12:04:44;1.90;;;1.10;;
8652;SDS011;4364;52.426;9.424;2023-07-29T12:07:13;2.30;;;1.50;;
8652;SDS011;4364;52.426;9.424;2023-07-29T12:09:41;1.20;;;1.10;;
8652;SDS011;4364;52.426;9.424;2023-07-29T12:12:09;1.50;;;1.40;;
8652;SDS011;4364;52.426;9.424;2023-07-29T12:14:35;1.40;;;1.13;;
8652;SDS011;4364;52.426;9.424;2023-07-29T12:17:03;2.00;;;1.50;;
8652;SDS011;4364;52.426;9.424;2023-07-29T12:19:35;2.27;;;1.40;;
8652;SDS011;4364;52.426;9.424;2023-07-29T12:22:03;1.47;;;1.30;;
8652;SDS011;4364;52.426;9.424;2023-07-29T12:24:32;1.73;;;1.30;;
8652;SDS011;4364;52.426;9.424;2023-07-29T12:27:00;1.30;;;1.20;;
8652;SDS011;4364;52.426;9.424;2023-07-29T12:29:26;1.20;;;1.10;;
8652;SDS011;4364;52.426;9.424;2023-07-29T12:31:57;1.40;;;1.30;;
8652;SDS011;4364;52.426;9.424;2023-07-29T12:34:27;2.10;;;1.10;;
8652;SDS011;4364;52.426;9.424;2023-07-29T12:36:55;1.40;;;1.30;;
8652;SDS011;4364;52.426;9.424;2023-07-29T12:39:27;1.80;;;1.13;;
8652;SDS011;4364;52.426;9.424;2023-07-29T12:41:59;1.67;;;1.27;;
8652;SDS011;4364;52.426;9.424;2023-07-29T12:44:31;2.00;;;1.33;;
8652;SDS011;4364;52.426;9.424;2023-07-29T12:47:00;1.20;;;1.10;;
8652;SDS011;4364;52.426;9.424;2023-07-29T12:49:29;1.43;;;1.20;;
8652;SDS011;4364;52.426;9.424;2023-07-29T12:51:56;2.40;;;1.40;;
8652;SDS011;4364;52.426;9.424;2023-07-29T12:54:23;2.72;;;1.25;;
8652;SDS011;4364;52.426;9.424;2023-07-29T12:56:50;1.30;;;1.20;;
8652;SDS011;4364;52.426;9.424;2023-07-29T12:59:17;1.53;;;1.30;;
8652;SDS011;4364;52.426;9.424;2023-07-29T13:01:44;1.95;;;1.38;;
8652;SDS011;4364;52.426;9.424;2023-07-29T13:04:10;1.40;;;1.30;;
8652;SDS011;4364;52.426;9.424;2023-07-29T13:06:37;1.40;;;1.23;;
8652;SDS011;4364;52.426;9.424;2023-07-29T13:09:05;2.00;;;1.63;;
8652;SDS011;4364;52.426;9.424;2023-07-29T13:11:32;1.70;;;1.45;;
8652;SDS011;4364;52.426;9.424;2023-07-29T13:13:59;2.15;;;1.30;;
8652;SDS011;4364;52.426;9.424;2023-07-29T13:16:27;2.50;;;1.38;;
8652;SDS011;4364;52.426;9.424;2023-07-29T13:18:55;1.48;;;1.30;;
8652;SDS011;4364;52.426;9.424;2023-07-29T13:21:22;1.40;;;1.30;;
8652;SDS011;4364;52.426;9.424;2023-07-29T13:23:49;2.17;;;1.40;;
8652;SDS011;4364;52.426;9.424;2023-07-29T13:26:16;1.55;;;1.30;;
8652;SDS011;4364;52.426;9.424;2023-07-29T13:28:43;1.33;;;1.23;;
8652;SDS011;4364;52.426;9.424;2023-07-29T13:31:09;1.35;;;1.10;;
8652;SDS011;4364;52.426;9.424;2023-07-29T13:33:36;2.20;;;1.23;;
8652;SDS011;4364;52.426;9.424;2023-07-29T13:36:03;1.67;;;1.57;;
8652;SDS011;4364;52.426;9.424;2023-07-29T13:38:31;1.43;;;1.33;;
8652;SDS011;4364;52.426;9.424;2023-07-29T13:40:58;1.60;;;1.33;;
8652;SDS011;4364;52.426;9.424;2023-07-29T13:43:25;1.40;;;1.20;;
8652;SDS011;4364;52.426;9.424;2023-07-29T13:45:51;1.48;;;1.38;;
8652;SDS011;4364;52.426;9.424;2023-07-29T13:48:18;1.30;;;1.20;;
8652;SDS011;4364;52.426;9.424;2023-07-29T13:50:45;1.77;;;1.50;;
8652;SDS011;4364;52.426;9.424;2023-07-29T13:53:12;2.63;;;1.63;;
8652;SDS011;4364;52.426;9.424;2023-07-29T13:55:39;1.55;;;1.23;;
8652;SDS011;4364;52.426;9.424;2023-07-29T13:58:05;1.90;;;1.20;;
8652;SDS011;4364;52.426;9.424;2023-07-29T14:00:32;2.55;;;1.45;;
8652;SDS011;4364;52.426;9.424;2023-07-29T14:02:59;1.55;;;1.45;;
8652;SDS011;4364;52.426;9.424;2023-07-29T14:05:26;2.55;;;1.55;;
8652;SDS011;4364;52.426;9.424;2023-07-29T14:07:52;1.60;;;1.50;;
8652;SDS011;4364;52.426;9.424;2023-07-29T14:10:19;2.47;;;1.50;;
8652;SDS011;4364;52.426;9.424;2023-07-29T14:12:45;1.70;;;1.40;;
8652;SDS011;4364;52.426;9.424;2023-07-29T14:15:12;1.80;;;1.50;;
8652;SDS011;4364;52.426;9.424;2023-07-29T14:17:38;2.47;;;1.58;;
8652;SDS011;4364;52.426;9.424;2023-07-29T14:20:05;1.63;;;1.50;;
8652;SDS011;4364;52.426;9.424;2023-07-29T14:22:32;1.67;;;1.50;;
8652;SDS011;4364;52.426;9.424;2023-07-29T14:24:59;2.60;;;1.60;;
8652;SDS011;4364;52.426;9.424;2023-07-29T14:27:26;2.55;;;1.67;;
8652;SDS011;4364;52.426;9.424;2023-07-29T14:29:53;1.60;;;1.50;;
8652;SDS011;4364;52.426;9.424;2023-07-29T14:32:19;1.73;;;1.60;;
8652;SDS011;4364;52.426;9.424;2023-07-29T14:34:49;1.92;;;1.55;;
8652;SDS011;4364;52.426;9.424;2023-07-29T14:37:16;1.90;;;1.50;;
8652;SDS011;4364;52.426;9.424;2023-07-29T14:39:42;1.80;;;1.50;;
8652;SDS011;4364;52.426;9.424;2023-07-29T14:42:09;1.80;;;1.60;;
8652;SDS011;4364;52.426;9.424;2023-07-29T14:44:35;2.95;;;1.60;;
8652;SDS011;4364;52.426;9.424;2023-07-29T14:47:02;1.50;;;1.40;;
8652;SDS011;4364;52.426;9.424;2023-07-29T14:49:29;1.45;;;1.35;;
8652;SDS011;4364;52.426;9.424;2023-07-29T14:51:55;1.88;;;1.58;;
8652;SDS011;4364;52.426;9.424;2023-07-29T14:54:22;2.30;;;1.50;;
8652;SDS011;4364;52.426;9.424;2023-07-29T14:56:49;3.63;;;1.52;;
8652;SDS011;4364;52.426;9.424;2023-07-29T14:59:15;3.30;;;1.63;;
8652;SDS011;4364;52.426;9.424;2023-07-29T15:01:42;2.20;;;1.60;;
8652;SDS011;4364;52.426;9.424;2023-07-29T15:04:08;2.03;;;1.80;;
8652;SDS011;4364;52.426;9.424;2023-07-29T15:06:35;1.80;;;1.70;;
8652;SDS011;4364;52.426;9.424;2023-07-29T15:09:02;1.83;;;1.73;;
8652;SDS011;4364;52.426;9.424;2023-07-29T15:11:29;2.10;;;1.90;;
8652;SDS011;4364;52.426;9.424;2023-07-29T15:13:56;1.87;;;1.60;;
8652;SDS011;4364;52.426;9.424;2023-07-29T15:16:23;2.20;;;2.00;;
8652;SDS011;4364;52.426;9.424;2023-07-29T15:18:50;2.83;;;1.87;;
8652;SDS011;4364;52.426;9.424;2023-07-29T15:21:17;2.10;;;1.90;;
8652;SDS011;4364;52.426;9.424;2023-07-29T15:23:44;3.13;;;2.27;;
8652;SDS011;4364;52.426;9.424;2023-07-29T15:26:11;3.40;;;2.20;;
8652;SDS011;4364;52.426;9.424;2023-07-29T15:28:37;2.57;;;2.37;;
8652;SDS011;4364;52.426;9.424;2023-07-29T15:31:04;3.13;;;2.60;;
8652;SDS011;4364;52.426;9.424;2023-07-29T15:33:31;2.40;;;2.20;;